LNFTM EDDM-EDDC
Flight info
| Callsign | LNFTM |
|---|---|
| Flight time | N/A |
| Altitude | 9000 |
| Route | AKINI1N/26R AKINI MAMOR L132 ABKIS |
| Aircraft | DA40/L-LSBDGRY/S |
Departure
| Time | N/A |
|---|---|
| Airport | Munich Airport (EDDM) |
Arrival
| Time | 2026-05-06 17:34 |
|---|---|
| Airport | Dresden Airport (EDDC) |
| Time | Latitude | Longitude | Altitude | Speed | Heading |
|---|---|---|---|---|---|
| 2026-05-06 16:44 | 49.45583 | 12.57906 | 6717 ft | 140 kts | 7° |
| 2026-05-06 16:44 | 49.46542 | 12.58207 | 6739 ft | 138 kts | 7° |
| 2026-05-06 16:44 | 49.47475 | 12.58500 | 6731 ft | 139 kts | 7° |
| 2026-05-06 16:44 | 49.48408 | 12.58793 | 6744 ft | 138 kts | 7° |
| 2026-05-06 16:45 | 49.49351 | 12.59090 | 6743 ft | 138 kts | 7° |
| 2026-05-06 16:45 | 49.50281 | 12.59384 | 6747 ft | 138 kts | 7° |
| 2026-05-06 16:45 | 49.51243 | 12.59687 | 6748 ft | 138 kts | 7° |
| 2026-05-06 16:45 | 49.52179 | 12.59982 | 6747 ft | 138 kts | 7° |
| 2026-05-06 16:46 | 49.53120 | 12.60279 | 6748 ft | 138 kts | 7° |
| 2026-05-06 16:46 | 49.54057 | 12.60576 | 6748 ft | 138 kts | 7° |
| 2026-05-06 16:46 | 49.54995 | 12.60872 | 6748 ft | 137 kts | 7° |
| 2026-05-06 16:46 | 49.55931 | 12.61168 | 6747 ft | 137 kts | 7° |
| 2026-05-06 16:47 | 49.56879 | 12.61441 | 6747 ft | 137 kts | 5° |
| 2026-05-06 16:47 | 49.57811 | 12.61676 | 6748 ft | 137 kts | 5° |
| 2026-05-06 16:47 | 49.58749 | 12.61909 | 6748 ft | 137 kts | 5° |
| 2026-05-06 16:47 | 49.59689 | 12.62140 | 6748 ft | 137 kts | 5° |
| 2026-05-06 16:48 | 49.60627 | 12.62370 | 6747 ft | 137 kts | 5° |
| 2026-05-06 16:48 | 49.61576 | 12.62603 | 6748 ft | 137 kts | 4° |
| 2026-05-06 16:48 | 49.62515 | 12.62833 | 6749 ft | 137 kts | 4° |
| 2026-05-06 16:48 | 49.63448 | 12.63061 | 6751 ft | 137 kts | 4° |
| 2026-05-06 16:49 | 49.64389 | 12.63291 | 6752 ft | 137 kts | 4° |
| 2026-05-06 16:49 | 49.65332 | 12.63521 | 6753 ft | 137 kts | 4° |
| 2026-05-06 16:49 | 49.66286 | 12.63754 | 6754 ft | 138 kts | 4° |
| 2026-05-06 16:49 | 49.67224 | 12.63983 | 6756 ft | 138 kts | 4° |
| 2026-05-06 16:50 | 49.68183 | 12.64217 | 6757 ft | 138 kts | 4° |
| 2026-05-06 16:50 | 49.69137 | 12.64450 | 6758 ft | 139 kts | 4° |
| 2026-05-06 16:50 | 49.70094 | 12.64684 | 6760 ft | 139 kts | 4° |
| 2026-05-06 16:50 | 49.71048 | 12.64917 | 6761 ft | 140 kts | 4° |
| 2026-05-06 16:51 | 49.72018 | 12.65155 | 6760 ft | 140 kts | 4° |
| 2026-05-06 16:51 | 49.72982 | 12.65390 | 6761 ft | 141 kts | 4° |
| 2026-05-06 16:51 | 49.73952 | 12.65627 | 6773 ft | 140 kts | 5° |
| 2026-05-06 16:51 | 49.74896 | 12.65857 | 6763 ft | 140 kts | 5° |
| 2026-05-06 16:52 | 49.75836 | 12.66092 | 6959 ft | 130 kts | 4° |
| 2026-05-06 16:52 | 49.76665 | 12.66303 | 7339 ft | 111 kts | 3° |
| 2026-05-06 16:52 | 49.77406 | 12.66488 | 7575 ft | 108 kts | 2° |
| 2026-05-06 16:52 | 49.78134 | 12.66668 | 7809 ft | 106 kts | 2° |
| 2026-05-06 16:53 | 49.78856 | 12.66845 | 8059 ft | 101 kts | 2° |
| 2026-05-06 16:53 | 49.79535 | 12.67010 | 8194 ft | 108 kts | 1° |
| 2026-05-06 16:53 | 49.80270 | 12.67191 | 8433 ft | 105 kts | 1° |
| 2026-05-06 16:53 | 49.80989 | 12.67369 | 8650 ft | 104 kts | 1° |
| 2026-05-06 16:54 | 49.81708 | 12.67543 | 8782 ft | 108 kts | 1° |
| 2026-05-06 16:54 | 49.82496 | 12.67729 | 8812 ft | 118 kts | 2° |
| 2026-05-06 16:54 | 49.83338 | 12.67929 | 8797 ft | 130 kts | 2° |
| 2026-05-06 16:54 | 49.84236 | 12.68147 | 8833 ft | 133 kts | 2° |
| 2026-05-06 16:55 | 49.85191 | 12.68379 | 8810 ft | 139 kts | 3° |
| 2026-05-06 16:55 | 49.86158 | 12.68618 | 8791 ft | 144 kts | 3° |
| 2026-05-06 16:55 | 49.87130 | 12.68859 | 8816 ft | 143 kts | 3° |
| 2026-05-06 16:55 | 49.88129 | 12.69105 | 8810 ft | 143 kts | 3° |
| 2026-05-06 16:56 | 49.89117 | 12.69350 | 8782 ft | 145 kts | 3° |
| 2026-05-06 16:56 | 49.90123 | 12.69599 | 8781 ft | 145 kts | 3° |
| 2026-05-06 16:56 | 49.91126 | 12.69846 | 8760 ft | 147 kts | 3° |
| 2026-05-06 16:56 | 49.92129 | 12.70095 | 8790 ft | 145 kts | 3° |
| 2026-05-06 16:57 | 49.93127 | 12.70341 | 8769 ft | 147 kts | 3° |
| 2026-05-06 16:57 | 49.94132 | 12.70589 | 8781 ft | 146 kts | 3° |
| 2026-05-06 16:57 | 49.95139 | 12.70838 | 8782 ft | 146 kts | 3° |
| 2026-05-06 16:57 | 49.96145 | 12.71087 | 8781 ft | 146 kts | 3° |
| 2026-05-06 16:58 | 49.97143 | 12.71334 | 8779 ft | 146 kts | 3° |
| 2026-05-06 16:58 | 49.98156 | 12.71583 | 8790 ft | 145 kts | 3° |
| 2026-05-06 16:58 | 49.99148 | 12.71829 | 8779 ft | 146 kts | 3° |
| 2026-05-06 16:58 | 50.00157 | 12.72079 | 8777 ft | 146 kts | 3° |
| 2026-05-06 16:59 | 50.01162 | 12.72327 | 8779 ft | 146 kts | 3° |
| 2026-05-06 16:59 | 50.02164 | 12.72575 | 8789 ft | 146 kts | 3° |
| 2026-05-06 16:59 | 50.03164 | 12.72822 | 8765 ft | 147 kts | 3° |
| 2026-05-06 16:59 | 50.04176 | 12.73072 | 8764 ft | 148 kts | 3° |
| 2026-05-06 17:00 | 50.05195 | 12.73326 | 8803 ft | 145 kts | 3° |
| 2026-05-06 17:00 | 50.06194 | 12.73573 | 8766 ft | 148 kts | 3° |
| 2026-05-06 17:00 | 50.07212 | 12.73825 | 8761 ft | 149 kts | 3° |
| 2026-05-06 17:00 | 50.08235 | 12.74079 | 8795 ft | 146 kts | 3° |
| 2026-05-06 17:01 | 50.09236 | 12.74328 | 8760 ft | 149 kts | 3° |
| 2026-05-06 17:01 | 50.10246 | 12.74579 | 8801 ft | 145 kts | 3° |
| 2026-05-06 17:01 | 50.11253 | 12.74829 | 8770 ft | 147 kts | 3° |
| 2026-05-06 17:01 | 50.12257 | 12.75079 | 8784 ft | 145 kts | 3° |
| 2026-05-06 17:02 | 50.13247 | 12.75324 | 8776 ft | 145 kts | 3° |
| 2026-05-06 17:02 | 50.14243 | 12.75572 | 8770 ft | 145 kts | 3° |
| 2026-05-06 17:02 | 50.15246 | 12.75822 | 8774 ft | 145 kts | 3° |
| 2026-05-06 17:02 | 50.16237 | 12.76069 | 8780 ft | 145 kts | 3° |
| 2026-05-06 17:03 | 50.17239 | 12.76318 | 8768 ft | 146 kts | 3° |
| 2026-05-06 17:03 | 50.18243 | 12.76568 | 8794 ft | 144 kts | 3° |
| 2026-05-06 17:03 | 50.19257 | 12.76820 | 8773 ft | 146 kts | 3° |
| 2026-05-06 17:03 | 50.20249 | 12.77068 | 8762 ft | 148 kts | 3° |
| 2026-05-06 17:04 | 50.21269 | 12.77322 | 8769 ft | 148 kts | 3° |
| 2026-05-06 17:04 | 50.22279 | 12.77574 | 8777 ft | 147 kts | 3° |
| 2026-05-06 17:04 | 50.23287 | 12.77825 | 8789 ft | 147 kts | 3° |
| 2026-05-06 17:04 | 50.24305 | 12.78080 | 8771 ft | 148 kts | 3° |
| 2026-05-06 17:05 | 50.25314 | 12.78332 | 8781 ft | 147 kts | 3° |
| 2026-05-06 17:05 | 50.26317 | 12.78582 | 8751 ft | 149 kts | 3° |
| 2026-05-06 17:05 | 50.27324 | 12.78836 | 8805 ft | 144 kts | 3° |
| 2026-05-06 17:05 | 50.28333 | 12.79087 | 8773 ft | 147 kts | 3° |
| 2026-05-06 17:06 | 50.29335 | 12.79338 | 8759 ft | 148 kts | 3° |
| 2026-05-06 17:06 | 50.30343 | 12.79590 | 8788 ft | 145 kts | 3° |
| 2026-05-06 17:06 | 50.31343 | 12.79843 | 8764 ft | 147 kts | 2° |
| 2026-05-06 17:06 | 50.32356 | 12.80097 | 8753 ft | 147 kts | 2° |
| 2026-05-06 17:07 | 50.33368 | 12.80350 | 8748 ft | 147 kts | 2° |
| 2026-05-06 17:07 | 50.34376 | 12.80603 | 8748 ft | 147 kts | 2° |
| 2026-05-06 17:07 | 50.35392 | 12.80857 | 8749 ft | 147 kts | 2° |
| 2026-05-06 17:07 | 50.36407 | 12.81112 | 8749 ft | 147 kts | 2° |
| 2026-05-06 17:08 | 50.37398 | 12.81627 | 8743 ft | 152 kts | 20° |
| 2026-05-06 17:08 | 50.38325 | 12.82402 | 8747 ft | 153 kts | 23° |
| 2026-05-06 17:08 | 50.39244 | 12.83225 | 8753 ft | 153 kts | 24° |
| 2026-05-06 17:08 | 50.40173 | 12.84076 | 8749 ft | 153 kts | 24° |
| 2026-05-06 17:09 | 50.41085 | 12.84922 | 8749 ft | 153 kts | 24° |
| 2026-05-06 17:09 | 50.42003 | 12.85780 | 8750 ft | 153 kts | 25° |
| 2026-05-06 17:09 | 50.42919 | 12.86640 | 8749 ft | 153 kts | 25° |
| 2026-05-06 17:09 | 50.43837 | 12.87506 | 8749 ft | 154 kts | 25° |
| 2026-05-06 17:10 | 50.44746 | 12.88364 | 8749 ft | 154 kts | 25° |
| 2026-05-06 17:10 | 50.45667 | 12.89236 | 8749 ft | 154 kts | 25° |
| 2026-05-06 17:10 | 50.46581 | 12.90101 | 8749 ft | 154 kts | 25° |
| 2026-05-06 17:10 | 50.47492 | 12.90966 | 8749 ft | 154 kts | 25° |
| 2026-05-06 17:11 | 50.48407 | 12.91834 | 8749 ft | 154 kts | 25° |
| 2026-05-06 17:11 | 50.49324 | 12.92704 | 8749 ft | 154 kts | 25° |
| 2026-05-06 17:11 | 50.50241 | 12.93574 | 8749 ft | 154 kts | 25° |
| 2026-05-06 17:11 | 50.51147 | 12.94436 | 8749 ft | 154 kts | 25° |
| 2026-05-06 17:12 | 50.52068 | 12.95311 | 8749 ft | 154 kts | 25° |
| 2026-05-06 17:12 | 50.52975 | 12.96174 | 8749 ft | 154 kts | 25° |
| 2026-05-06 17:12 | 50.53895 | 12.97050 | 8750 ft | 154 kts | 25° |
| 2026-05-06 17:12 | 50.54802 | 12.97914 | 8749 ft | 154 kts | 25° |
| 2026-05-06 17:13 | 50.55725 | 12.98793 | 8749 ft | 154 kts | 25° |
| 2026-05-06 17:13 | 50.56628 | 12.99653 | 8751 ft | 153 kts | 25° |
| 2026-05-06 17:13 | 50.57548 | 13.00530 | 8752 ft | 153 kts | 25° |
| 2026-05-06 17:13 | 50.58463 | 13.01403 | 8748 ft | 154 kts | 25° |
| 2026-05-06 17:14 | 50.59374 | 13.02272 | 8752 ft | 153 kts | 25° |
| 2026-05-06 17:14 | 50.60284 | 13.03142 | 8749 ft | 153 kts | 25° |
| 2026-05-06 17:14 | 50.61198 | 13.04014 | 8748 ft | 153 kts | 25° |
| 2026-05-06 17:14 | 50.62104 | 13.04881 | 8755 ft | 153 kts | 25° |
| 2026-05-06 17:15 | 50.62989 | 13.05853 | 8743 ft | 156 kts | 34° |
| 2026-05-06 17:15 | 50.63813 | 13.06939 | 8755 ft | 155 kts | 35° |
| 2026-05-06 17:15 | 50.64636 | 13.08057 | 8749 ft | 155 kts | 36° |
| 2026-05-06 17:15 | 50.65450 | 13.09185 | 8746 ft | 156 kts | 37° |
| 2026-05-06 17:16 | 50.66259 | 13.10321 | 8755 ft | 155 kts | 37° |
| 2026-05-06 17:16 | 50.67061 | 13.11451 | 8748 ft | 155 kts | 37° |
| 2026-05-06 17:16 | 50.67864 | 13.12584 | 8751 ft | 155 kts | 37° |
| 2026-05-06 17:16 | 50.68667 | 13.13718 | 8750 ft | 155 kts | 37° |
| 2026-05-06 17:17 | 50.69477 | 13.14865 | 8752 ft | 155 kts | 37° |
| 2026-05-06 17:17 | 50.70282 | 13.16002 | 8744 ft | 156 kts | 37° |
| 2026-05-06 17:17 | 50.71075 | 13.17127 | 8754 ft | 155 kts | 37° |
| 2026-05-06 17:17 | 50.71876 | 13.18263 | 8751 ft | 155 kts | 38° |
| 2026-05-06 17:18 | 50.72677 | 13.19396 | 8748 ft | 155 kts | 38° |
| 2026-05-06 17:18 | 50.73486 | 13.20546 | 8752 ft | 155 kts | 37° |
| 2026-05-06 17:18 | 50.74279 | 13.21673 | 8753 ft | 154 kts | 37° |
| 2026-05-06 17:18 | 50.75081 | 13.22811 | 8744 ft | 155 kts | 37° |
| 2026-05-06 17:19 | 50.75879 | 13.23944 | 8743 ft | 155 kts | 38° |
| 2026-05-06 17:19 | 50.76680 | 13.25082 | 8720 ft | 156 kts | 37° |
| 2026-05-06 17:19 | 50.77484 | 13.26230 | 8551 ft | 157 kts | 37° |
| 2026-05-06 17:19 | 50.78287 | 13.27376 | 8380 ft | 156 kts | 37° |
| 2026-05-06 17:20 | 50.79096 | 13.28529 | 8201 ft | 155 kts | 37° |
| 2026-05-06 17:20 | 50.79889 | 13.29658 | 8021 ft | 155 kts | 38° |
| 2026-05-06 17:20 | 50.80690 | 13.30799 | 7852 ft | 154 kts | 38° |
| 2026-05-06 17:20 | 50.81487 | 13.31936 | 7685 ft | 153 kts | 37° |
| 2026-05-06 17:21 | 50.82273 | 13.33057 | 7509 ft | 153 kts | 38° |
| 2026-05-06 17:21 | 50.83057 | 13.34177 | 7357 ft | 151 kts | 38° |
| 2026-05-06 17:21 | 50.83838 | 13.35291 | 7179 ft | 151 kts | 38° |
| 2026-05-06 17:21 | 50.84613 | 13.36398 | 7013 ft | 150 kts | 37° |
| 2026-05-06 17:22 | 50.85385 | 13.37501 | 6843 ft | 149 kts | 37° |
| 2026-05-06 17:22 | 50.86146 | 13.38588 | 6676 ft | 148 kts | 38° |
| 2026-05-06 17:22 | 50.86916 | 13.39689 | 6511 ft | 147 kts | 38° |
| 2026-05-06 17:22 | 50.87679 | 13.40781 | 6338 ft | 148 kts | 38° |
| 2026-05-06 17:23 | 50.88428 | 13.41855 | 6191 ft | 146 kts | 38° |
| 2026-05-06 17:23 | 50.89178 | 13.42928 | 6024 ft | 145 kts | 38° |
| 2026-05-06 17:23 | 50.89930 | 13.44005 | 5852 ft | 146 kts | 38° |
| 2026-05-06 17:23 | 50.90689 | 13.45093 | 5699 ft | 145 kts | 38° |
| 2026-05-06 17:24 | 50.91433 | 13.46161 | 5543 ft | 145 kts | 38° |
| 2026-05-06 17:24 | 50.92184 | 13.47214 | 5404 ft | 142 kts | 37° |
| 2026-05-06 17:24 | 50.92923 | 13.48242 | 5220 ft | 143 kts | 37° |
| 2026-05-06 17:24 | 50.93668 | 13.49296 | 5057 ft | 143 kts | 39° |
| 2026-05-06 17:25 | 50.94391 | 13.50374 | 4892 ft | 143 kts | 39° |
| 2026-05-06 17:25 | 50.95119 | 13.51446 | 4722 ft | 143 kts | 39° |
| 2026-05-06 17:25 | 50.95828 | 13.52549 | 4564 ft | 142 kts | 42° |
| 2026-05-06 17:25 | 50.96524 | 13.53649 | 4368 ft | 142 kts | 40° |
| 2026-05-06 17:26 | 50.97249 | 13.54746 | 4156 ft | 145 kts | 40° |
| 2026-05-06 17:26 | 50.97976 | 13.55845 | 3997 ft | 143 kts | 40° |
| 2026-05-06 17:26 | 50.98700 | 13.56839 | 3961 ft | 132 kts | 33° |
| 2026-05-06 17:26 | 50.99390 | 13.57677 | 3912 ft | 117 kts | 34° |
| 2026-05-06 17:27 | 50.99970 | 13.58415 | 3931 ft | 90 kts | 35° |
| 2026-05-06 17:27 | 51.00458 | 13.59053 | 3796 ft | 89 kts | 34° |
| 2026-05-06 17:27 | 51.00940 | 13.59685 | 3675 ft | 89 kts | 34° |
| 2026-05-06 17:27 | 51.01410 | 13.60308 | 3564 ft | 89 kts | 34° |
| 2026-05-06 17:28 | 51.01888 | 13.60950 | 3462 ft | 88 kts | 35° |
| 2026-05-06 17:28 | 51.02354 | 13.61580 | 3361 ft | 88 kts | 35° |
| 2026-05-06 17:28 | 51.02819 | 13.62211 | 3245 ft | 89 kts | 35° |
| 2026-05-06 17:28 | 51.03287 | 13.62850 | 3147 ft | 89 kts | 36° |
| 2026-05-06 17:29 | 51.03755 | 13.63488 | 3046 ft | 91 kts | 36° |
| 2026-05-06 17:29 | 51.04240 | 13.64153 | 2949 ft | 91 kts | 36° |
| 2026-05-06 17:29 | 51.04731 | 13.64827 | 2816 ft | 95 kts | 36° |
| 2026-05-06 17:29 | 51.05230 | 13.65520 | 2698 ft | 95 kts | 38° |
| 2026-05-06 17:30 | 51.05733 | 13.66226 | 2567 ft | 96 kts | 38° |
| 2026-05-06 17:30 | 51.06230 | 13.66915 | 2420 ft | 95 kts | 38° |
| 2026-05-06 17:30 | 51.06728 | 13.67600 | 2277 ft | 94 kts | 38° |
| 2026-05-06 17:30 | 51.07225 | 13.68277 | 2129 ft | 94 kts | 37° |
| 2026-05-06 17:31 | 51.07716 | 13.68949 | 2002 ft | 92 kts | 39° |
| 2026-05-06 17:31 | 51.08194 | 13.69606 | 1872 ft | 91 kts | 38° |
| 2026-05-06 17:31 | 51.08682 | 13.70272 | 1745 ft | 90 kts | 38° |
| 2026-05-06 17:31 | 51.09152 | 13.70918 | 1629 ft | 89 kts | 39° |
| 2026-05-06 17:32 | 51.09626 | 13.71570 | 1495 ft | 91 kts | 38° |
| 2026-05-06 17:32 | 51.10101 | 13.72220 | 1383 ft | 89 kts | 38° |
| 2026-05-06 17:32 | 51.10564 | 13.72849 | 1265 ft | 88 kts | 39° |
| 2026-05-06 17:32 | 51.11028 | 13.73492 | 1144 ft | 88 kts | 38° |
| 2026-05-06 17:33 | 51.11493 | 13.74128 | 1036 ft | 88 kts | 38° |
| 2026-05-06 17:33 | 51.11956 | 13.74769 | 921 ft | 89 kts | 39° |
| 2026-05-06 17:33 | 51.12387 | 13.75369 | 837 ft | 75 kts | 40° |
| 2026-05-06 17:33 | 51.12764 | 13.75888 | 747 ft | 68 kts | 39° |
| 2026-05-06 17:34 | 51.13081 | 13.76303 | 731 ft | 49 kts | 38° |
| 2026-05-06 17:34 | 51.13284 | 13.76599 | 725 ft | 27 kts | 36° |
| 2026-05-06 17:34 | 51.13354 | 13.76740 | 724 ft | 8 kts | 92° |
| 2026-05-06 17:34 | 51.13345 | 13.76782 | 724 ft | 1 kts | 120° |
| 2026-05-06 17:35 | 51.13322 | 13.76831 | 725 ft | 5 kts | 130° |
| 2026-05-06 17:35 | 51.13304 | 13.76867 | 726 ft | 2 kts | 132° |
| 2026-05-06 17:35 | 51.13302 | 13.76870 | 727 ft | 0 kts | 131° |
| 2026-05-06 17:36 | 51.13298 | 13.76878 | 727 ft | 5 kts | 129° |
| 2026-05-06 17:36 | 51.13249 | 13.76957 | 730 ft | 7 kts | 153° |
| 2026-05-06 17:37 | 51.13232 | 13.76963 | 731 ft | 5 kts | 181° |
| 2026-05-06 17:37 | 51.13157 | 13.76904 | 733 ft | 20 kts | 218° |
| 2026-05-06 17:37 | 51.13050 | 13.76745 | 736 ft | 16 kts | 223° |
| 2026-05-06 17:37 | 51.12965 | 13.76632 | 738 ft | 16 kts | 220° |
| 2026-05-06 17:38 | 51.12873 | 13.76504 | 740 ft | 17 kts | 219° |
| 2026-05-06 17:38 | 51.12781 | 13.76379 | 743 ft | 18 kts | 221° |
| 2026-05-06 17:38 | 51.12685 | 13.76246 | 746 ft | 18 kts | 220° |
| 2026-05-06 17:38 | 51.12580 | 13.76101 | 748 ft | 20 kts | 220° |
| 2026-05-06 17:39 | 51.12478 | 13.75962 | 748 ft | 18 kts | 222° |
| 2026-05-06 17:39 | 51.12437 | 13.75934 | 749 ft | 4 kts | 155° |
| 2026-05-06 17:39 | 51.12414 | 13.75964 | 749 ft | 3 kts | 131° |
| 2026-05-06 17:39 | 51.12394 | 13.75984 | 750 ft | 5 kts | 160° |
| 2026-05-06 17:40 | 51.12369 | 13.75980 | 750 ft | 1 kts | 205° |
| 2026-05-06 17:40 | 51.12368 | 13.75979 | 750 ft | 0 kts | 213° |